Time;durP1;ratioP1;P1;durP2;ratioP2;P2;SDS_P1;SDS_P2;PMS_P1;PMS_P2;Temp;Humidity;BMP_temperature;BMP_pressure;BME280_temperature;BME280_humidity;BME280_pressure;Samples;Min_cycle;Max_cycle;Signal;HPM_P1;HPM_P2
2022/08/09 00:01:01;;;;;;;0.00;0.00;;;14.10;99.90;;;;;;5067338;28;20342;-94
2022/08/09 00:03:29;;;;;;;0.20;0.17;;;14.10;99.90;;;;;;5066738;28;20040;-93
2022/08/09 00:05:55;;;;;;;0.15;0.15;;;13.90;99.90;;;;;;5093419;28;20051;-93
2022/08/09 00:08:23;;;;;;;0.10;0.03;;;13.30;99.90;;;;;;5075916;28;20406;-92
2022/08/09 00:10:49;;;;;;;1.25;0.10;;;13.80;99.90;;;;;;5078897;28;20122;-93
2022/08/09 00:13:19;;;;;;;0.07;0.07;;;13.90;99.90;;;;;;5078453;28;20071;-93
2022/08/09 00:15:45;;;;;;;0.10;0.10;;;13.90;99.90;;;;;;5076856;28;20510;-93
2022/08/09 00:18:20;;;;;;;0.30;0.08;;;13.80;99.90;;;;;;5069207;28;20058;-94
2022/08/09 00:20:51;;;;;;;0.20;0.20;;;13.80;99.90;;;;;;5064572;28;20062;-95
2022/08/09 00:23:20;;;;;;;0.10;0.10;;;13.70;99.90;;;;;;5077589;28;20071;-93
2022/08/09 00:25:48;;;;;;;0.10;0.10;;;13.70;99.90;;;;;;5075539;28;20123;-94
2022/08/09 00:28:21;;;;;;;0.00;0.00;;;13.70;99.90;;;;;;5090335;28;20130;-93
2022/08/09 00:30:49;;;;;;;0.52;0.10;;;13.60;99.90;;;;;;5095192;28;20039;-95
2022/08/09 00:33:18;;;;;;;0.15;0.10;;;13.70;99.90;;;;;;5084547;28;20071;-93
2022/08/09 00:35:47;;;;;;;0.10;0.10;;;13.60;99.90;;;;;;5094749;28;20122;-93
2022/08/09 00:38:14;;;;;;;0.20;0.13;;;13.60;99.90;;;;;;5076055;28;20056;-93
2022/08/09 00:40:44;;;;;;;0.22;0.10;;;13.50;99.90;;;;;;5095483;28;20052;-92
2022/08/09 00:43:10;;;;;;;0.00;0.00;;;13.50;99.90;;;;;;5080784;28;20059;-93
2022/08/09 00:45:39;;;;;;;0.40;0.20;;;13.50;99.90;;;;;;5092343;28;20044;-93
2022/08/09 00:48:08;;;;;;;0.73;0.10;;;13.40;99.90;;;;;;5093683;28;20051;-94
2022/08/09 00:50:40;;;;;;;0.45;0.40;;;13.40;99.90;;;;;;5089100;28;20051;-94
2022/08/09 00:53:12;;;;;;;0.20;0.20;;;13.40;99.90;;;;;;5108306;28;20040;-93
2022/08/09 00:55:39;;;;;;;0.98;0.20;;;13.40;99.90;;;;;;5082510;28;20067;-93
2022/08/09 00:58:05;;;;;;;0.20;0.20;;;13.30;99.90;;;;;;5083335;28;20102;-92
2022/08/09 01:00:41;;;;;;;0.10;0.10;;;13.30;99.90;;;;;;5087375;28;20482;-94
2022/08/09 01:03:15;;;;;;;0.00;0.00;;;13.20;99.90;;;;;;5086572;28;20078;-93
2022/08/09 01:05:54;;;;;;;0.00;0.00;;;13.20;99.90;;;;;;5084695;28;20047;-93
2022/08/09 01:08:42;;;;;;;0.00;0.00;;;13.10;99.90;;;;;;5110647;28;20078;-93
2022/08/09 01:11:19;;;;;;;0.03;0.00;;;13.10;99.90;;;;;;5085553;28;20075;-93
2022/08/09 01:14:12;;;;;;;0.15;0.15;;;13.10;99.90;;;;;;5080720;28;20112;-93
2022/08/09 01:16:46;;;;;;;0.05;0.05;;;12.10;99.90;;;;;;5107558;28;20154;-93
2022/08/09 01:19:50;;;;;;;0.10;0.10;;;13.00;99.90;;;;;;5077749;27;20230;-93
2022/08/09 01:23:15;;;;;;;0.60;0.20;;;12.90;99.90;;;;;;5068675;28;20044;-93
2022/08/09 01:26:05;;;;;;;0.10;0.10;;;12.90;99.90;;;;;;5043622;28;20079;-93
2022/08/09 01:28:36;;;;;;;0.20;0.20;;;12.80;99.90;;;;;;5076909;28;20040;-92
2022/08/09 01:31:10;;;;;;;0.10;0.10;;;12.80;99.90;;;;;;5092431;28;20054;-92
2022/08/09 01:33:39;;;;;;;0.17;0.05;;;12.80;99.90;;;;;;5077933;28;20040;-93
2022/08/09 01:36:15;;;;;;;0.20;0.20;;;12.70;99.90;;;;;;5070411;28;20382;-92
2022/08/09 01:38:45;;;;;;;0.90;0.20;;;13.30;99.90;;;;;;5077875;28;20186;-93
2022/08/09 01:41:19;;;;;;;0.10;0.10;;;12.10;99.90;;;;;;5087528;28;20477;-93
2022/08/09 01:43:48;;;;;;;1.10;0.32;;;12.70;99.90;;;;;;5078373;28;20046;-93
2022/08/09 01:46:18;;;;;;;0.10;0.10;;;12.70;99.90;;;;;;5076259;28;20518;-93
2022/08/09 01:48:49;;;;;;;0.00;0.00;;;12.70;99.90;;;;;;5078304;28;20481;-93
2022/08/09 01:51:19;;;;;;;0.10;0.10;;;12.60;99.90;;;;;;5074752;28;20052;-93
2022/08/09 01:53:55;;;;;;;0.10;0.10;;;11.80;99.90;;;;;;5069366;28;20055;-92
2022/08/09 01:56:32;;;;;;;0.00;0.00;;;12.60;99.90;;;;;;5081185;28;20054;-92
2022/08/09 01:59:02;;;;;;;0.13;0.13;;;12.60;99.90;;;;;;5082666;28;20535;-92
2022/08/09 02:01:30;;;;;;;0.20;0.13;;;12.60;99.90;;;;;;5098496;28;20040;-93
2022/08/09 02:04:01;;;;;;;0.00;0.00;;;12.60;99.90;;;;;;5080607;28;20134;-92
2022/08/09 02:09:17;;;;;;;0.10;0.10;;;12.60;99.90;;;;;;5103248;28;20379;-92
2022/08/09 02:11:53;;;;;;;0.30;0.13;;;12.50;99.90;;;;;;5081065;28;20132;-92
2022/08/09 02:14:26;;;;;;;0.10;0.10;;;12.60;99.90;;;;;;5088031;28;20047;-92
2022/08/09 02:16:53;;;;;;;0.88;0.17;;;12.50;99.90;;;;;;5085207;28;20051;-93
2022/08/09 02:19:20;;;;;;;0.00;0.00;;;12.50;99.90;;;;;;5079257;28;20078;-91
2022/08/09 02:21:49;;;;;;;0.10;0.10;;;12.50;99.90;;;;;;5086972;28;20087;-92
2022/08/09 02:24:22;;;;;;;0.10;0.10;;;12.60;99.90;;;;;;5077656;28;20051;-92
2022/08/09 02:27:01;;;;;;;0.00;0.00;;;12.50;99.90;;;;;;5080609;28;20121;-93
2022/08/09 02:29:34;;;;;;;0.00;0.00;;;12.50;99.90;;;;;;5078399;28;20046;-92
2022/08/09 02:32:04;;;;;;;0.00;0.00;;;12.40;99.90;;;;;;5088726;28;20040;-92
2022/08/09 02:34:34;;;;;;;0.00;0.00;;;12.50;99.90;;;;;;5077100;28;20043;-93
2022/08/09 02:37:08;;;;;;;0.00;0.00;;;12.40;99.90;;;;;;5061526;28;20040;-92
2022/08/09 02:39:40;;;;;;;0.03;0.03;;;12.30;99.90;;;;;;5081348;28;20040;-91
2022/08/09 02:42:11;;;;;;;0.10;0.08;;;12.30;99.90;;;;;;5071726;28;20040;-92
2022/08/09 02:44:41;;;;;;;0.20;0.17;;;11.20;99.90;;;;;;5078081;28;20047;-92
2022/08/09 02:47:12;;;;;;;0.00;0.00;;;12.30;99.90;;;;;;5080883;28;20105;-92
2022/08/09 02:49:57;;;;;;;0.20;0.20;;;12.30;99.90;;;;;;5070038;28;20062;-92
2022/08/09 02:52:35;;;;;;;1.77;0.30;;;12.20;99.90;;;;;;5097704;28;20047;-92
2022/08/09 02:55:02;;;;;;;1.17;0.20;;;12.20;99.90;;;;;;5069956;28;20040;-92
2022/08/09 02:57:31;;;;;;;0.00;0.00;;;12.20;99.90;;;;;;5069591;28;20092;-92
2022/08/09 03:00:01;;;;;;;0.10;0.10;;;12.30;99.90;;;;;;5066697;28;20051;-92
2022/08/09 03:02:28;;;;;;;0.00;0.00;;;12.30;99.90;;;;;;5089573;28;20040;-93
2022/08/09 03:05:01;;;;;;;0.00;0.00;;;12.20;99.90;;;;;;5072332;28;20156;-92
2022/08/09 03:07:29;;;;;;;1.85;0.20;;;12.80;99.90;;;;;;5080093;28;20110;-92
2022/08/09 03:09:58;;;;;;;1.95;0.28;;;12.10;99.90;;;;;;5065650;28;20047;-93
2022/08/09 03:12:28;;;;;;;0.20;0.08;;;12.10;99.90;;;;;;5063551;28;20055;-92
2022/08/09 03:15:01;;;;;;;0.00;0.00;;;12.10;99.90;;;;;;5069520;28;20055;-91
2022/08/09 03:17:35;;;;;;;0.10;0.10;;;12.10;99.90;;;;;;5083206;28;20047;-91
2022/08/09 03:20:03;;;;;;;1.23;0.43;;;12.10;99.90;;;;;;5067962;28;20063;-93
2022/08/09 03:22:32;;;;;;;0.20;0.20;;;12.10;99.90;;;;;;5087092;28;20043;-91
2022/08/09 03:25:00;;;;;;;0.40;0.10;;;12.00;99.90;;;;;;5072760;28;20059;-92
2022/08/09 03:27:29;;;;;;;0.22;0.17;;;12.00;99.90;;;;;;5056844;28;20036;-92
2022/08/09 03:29:58;;;;;;;0.10;0.10;;;11.40;99.90;;;;;;5077669;28;20046;-91
2022/08/09 03:32:26;;;;;;;0.20;0.20;;;12.10;99.90;;;;;;5085755;28;20047;-91
2022/08/09 03:34:57;;;;;;;0.10;0.10;;;12.10;99.90;;;;;;5092277;28;20083;-91
2022/08/09 03:37:26;;;;;;;0.00;0.00;;;12.10;99.90;;;;;;5063240;28;20039;-92
2022/08/09 03:39:55;;;;;;;1.65;0.10;;;12.20;99.90;;;;;;5054428;28;20044;-93
2022/08/09 03:42:20;;;;;;;0.40;0.10;;;12.10;99.90;;;;;;5112487;28;20054;-92
2022/08/09 03:44:52;;;;;;;0.00;0.00;;;12.20;99.90;;;;;;5070201;28;20039;-93
2022/08/09 03:47:17;;;;;;;0.57;0.20;;;12.20;99.90;;;;;;5076305;28;20101;-96
2022/08/09 03:49:44;;;;;;;0.10;0.10;;;12.20;99.90;;;;;;5040740;28;20039;-91
2022/08/09 03:52:10;;;;;;;0.20;0.20;;;12.10;99.90;;;;;;5061049;28;20075;-92
2022/08/09 03:54:38;;;;;;;0.05;0.05;;;12.20;99.90;;;;;;5065347;28;20040;-93
2022/08/09 03:57:08;;;;;;;0.08;0.08;;;12.20;99.90;;;;;;5084286;28;20051;-92
2022/08/09 03:59:38;;;;;;;0.30;0.22;;;12.20;99.90;;;;;;5095109;28;20032;-92
2022/08/09 04:02:09;;;;;;;0.32;0.32;;;12.20;99.90;;;;;;5070273;28;20085;-92
2022/08/09 04:04:38;;;;;;;0.50;0.40;;;12.20;99.90;;;;;;5070265;28;20043;-91
2022/08/09 04:07:05;;;;;;;0.20;0.20;;;12.20;99.90;;;;;;5066565;28;20397;-92
2022/08/09 04:09:36;;;;;;;0.10;0.10;;;12.20;99.90;;;;;;5067916;28;20065;-93
2022/08/09 04:12:13;;;;;;;0.28;0.28;;;12.10;99.90;;;;;;5070414;28;20108;-91
2022/08/09 04:14:55;;;;;;;0.32;0.22;;;12.20;99.90;;;;;;5089312;28;20047;-91
2022/08/09 04:17:32;;;;;;;0.20;0.20;;;12.20;99.90;;;;;;5073209;28;20044;-92
2022/08/09 04:20:06;;;;;;;0.17;0.17;;;12.10;99.90;;;;;;5074563;28;20052;-91
2022/08/09 04:22:35;;;;;;;0.52;0.45;;;12.10;99.90;;;;;;5097349;28;20052;-91
2022/08/09 04:25:01;;;;;;;0.10;0.00;;;12.10;99.90;;;;;;5095157;28;20405;-92
2022/08/09 04:27:27;;;;;;;0.25;0.25;;;12.00;99.90;;;;;;5108591;28;20146;-92
2022/08/09 04:29:55;;;;;;;0.30;0.17;;;12.10;99.90;;;;;;5109250;28;20153;-91
2022/08/09 04:32:26;;;;;;;0.10;0.10;;;12.10;99.90;;;;;;5081577;28;20424;-92
2022/08/09 04:35:02;;;;;;;;;;;;;;;;;;;;;
2022/08/09 04:37:28;;;;;;;0.00;0.00;;;12.10;99.90;;;;;;5095686;28;20043;-92
2022/08/09 04:39:54;;;;;;;0.20;0.10;;;12.20;99.90;;;;;;5084892;28;20051;-91
2022/08/09 04:42:25;;;;;;;0.00;0.00;;;12.30;99.90;;;;;;5085406;28;20277;-92
2022/08/09 04:44:51;;;;;;;0.10;0.10;;;12.40;99.90;;;;;;5096481;28;20102;-94
2022/08/09 04:47:17;;;;;;;0.50;0.10;;;12.30;99.90;;;;;;5092469;28;20478;-92
2022/08/09 04:49:43;;;;;;;0.00;0.00;;;12.30;99.90;;;;;;5083044;28;20127;-91
2022/08/09 04:52:12;;;;;;;0.13;0.13;;;12.30;99.90;;;;;;5108697;28;20056;-92
2022/08/09 04:54:43;;;;;;;0.00;0.00;;;12.30;99.90;;;;;;5112564;28;20086;-91
2022/08/09 04:57:25;;;;;;;0.00;0.00;;;12.30;99.90;;;;;;5072276;28;20044;-92
2022/08/09 05:00:03;;;;;;;0.13;0.10;;;12.10;99.90;;;;;;5086255;28;20473;-92
2022/08/09 05:02:34;;;;;;;0.35;0.20;;;12.30;99.90;;;;;;5084983;28;20047;-92
2022/08/09 05:05:05;;;;;;;0.28;0.13;;;12.30;99.90;;;;;;5094432;28;20048;-92
2022/08/09 05:07:34;;;;;;;0.05;0.05;;;12.40;99.90;;;;;;5070732;28;20036;-93
2022/08/09 05:10:05;;;;;;;0.20;0.20;;;12.30;99.90;;;;;;5108396;28;20421;-92
2022/08/09 05:12:31;;;;;;;0.05;0.00;;;12.50;99.90;;;;;;5106650;28;20047;-92
2022/08/09 05:14:57;;;;;;;0.10;0.10;;;11.90;99.90;;;;;;5095707;28;20446;-91
2022/08/09 05:17:23;;;;;;;0.63;0.53;;;12.50;99.90;;;;;;5109783;28;20036;-91
2022/08/09 05:19:48;;;;;;;0.90;0.20;;;12.50;99.90;;;;;;5110740;28;20078;-92
2022/08/09 05:22:15;;;;;;;0.00;0.00;;;12.60;99.90;;;;;;5094337;28;20047;-91
2022/08/09 05:24:43;;;;;;;0.10;0.10;;;12.70;99.90;;;;;;5088902;28;20301;-91
2022/08/09 05:27:11;;;;;;;0.00;0.00;;;12.70;99.90;;;;;;5093153;28;20055;-91
2022/08/09 05:29:42;;;;;;;0.10;0.10;;;12.00;99.90;;;;;;5093941;28;20036;-92
2022/08/09 05:32:07;;;;;;;0.28;0.10;;;12.80;99.90;;;;;;5105779;28;20512;-91
2022/08/09 05:34:36;;;;;;;0.00;0.00;;;12.90;99.90;;;;;;5112484;28;20044;-92
2022/08/09 05:37:04;;;;;;;0.20;0.00;;;14.00;99.90;;;;;;5095289;28;20393;-91
2022/08/09 05:39:30;;;;;;;0.05;0.00;;;13.20;99.90;;;;;;5095248;28;20110;-91
2022/08/09 05:41:58;;;;;;;0.00;0.00;;;13.40;99.90;;;;;;5098822;28;20052;-96
2022/08/09 05:44:26;;;;;;;0.25;0.10;;;13.60;99.90;;;;;;5111555;28;20036;-95
2022/08/09 05:46:52;;;;;;;0.00;0.00;;;13.70;99.90;;;;;;5095892;28;20059;-95
2022/08/09 05:49:18;;;;;;;0.00;0.00;;;13.90;99.90;;;;;;5084815;28;20040;-96
2022/08/09 05:51:54;;;;;;;0.28;0.10;;;14.10;99.90;;;;;;5109098;28;20100;-96
2022/08/09 05:54:19;;;;;;;0.00;0.00;;;14.30;99.90;;;;;;5077662;28;20085;-96
2022/08/09 05:56:53;;;;;;;0.00;0.00;;;14.40;99.90;;;;;;5113679;28;20044;-96
2022/08/09 05:59:21;;;;;;;0.80;0.08;;;14.50;99.90;;;;;;5077272;28;20079;-96
2022/08/09 06:01:48;;;;;;;0.10;0.10;;;14.80;99.90;;;;;;5106212;28;20047;-96
2022/08/09 06:04:13;;;;;;;;;;;14.90;99.90;;;;;;5107732;28;20131;-95
2022/08/09 06:06:39;;;;;;;1.20;0.10;;;15.20;99.90;;;;;;5089549;28;20014;-91
2022/08/09 06:09:05;;;;;;;0.10;0.10;;;16.50;99.90;;;;;;5114123;28;20054;-94
2022/08/09 06:11:36;;;;;;;0.10;0.10;;;15.50;99.90;;;;;;5105332;28;20020;-88
2022/08/09 06:14:08;;;;;;;0.00;0.00;;;15.80;99.90;;;;;;5083302;28;20846;-96
2022/08/09 06:16:34;;;;;;;0.00;0.00;;;15.80;99.90;;;;;;5087174;28;20064;-94
2022/08/09 06:19:02;;;;;;;0.60;0.00;;;16.00;99.90;;;;;;5094575;28;20261;-96
2022/08/09 06:21:28;;;;;;;0.70;0.10;;;15.20;99.90;;;;;;5130856;27;20054;-96
2022/08/09 06:23:54;;;;;;;0.20;0.00;;;16.20;99.90;;;;;;5081578;28;20044;-96
2022/08/09 06:26:21;;;;;;;0.20;0.20;;;16.00;99.90;;;;;;5098144;28;20562;-96
2022/08/09 06:28:52;;;;;;;0.47;0.40;;;16.40;99.90;;;;;;5097329;28;20050;-96
2022/08/09 06:31:18;;;;;;;0.20;0.20;;;15.50;99.90;;;;;;5109602;27;20036;-95
2022/08/09 06:33:44;;;;;;;1.10;0.20;;;16.70;99.90;;;;;;5097953;28;20043;-91
2022/08/09 06:36:12;;;;;;;0.20;0.10;;;16.90;99.90;;;;;;5098091;28;20528;-89
2022/08/09 06:38:39;;;;;;;0.10;0.00;;;17.10;99.90;;;;;;5062633;28;20048;-94
2022/08/09 06:41:07;;;;;;;;;;;17.30;99.90;;;;;;5093279;28;20723;-91
2022/08/09 06:43:33;;;;;;;0.22;0.20;;;16.90;99.90;;;;;;5078983;27;19930;-91
2022/08/09 06:45:58;;;;;;;0.20;0.20;;;17.70;99.90;;;;;;5082608;28;20059;-93
2022/08/09 06:48:24;;;;;;;1.30;0.10;;;17.80;99.90;;;;;;5080445;28;20047;-93
2022/08/09 06:50:52;;;;;;;0.13;0.13;;;17.90;99.90;;;;;;5080992;28;20109;-95
2022/08/09 06:53:19;;;;;;;0.08;0.08;;;18.00;99.90;;;;;;5092726;28;20048;-96
2022/08/09 06:55:45;;;;;;;0.08;0.08;;;18.20;99.90;;;;;;5076941;27;20154;-92
2022/08/09 06:58:19;;;;;;;0.52;0.10;;;18.30;99.90;;;;;;5097614;28;20039;-94
2022/08/09 07:00:48;;;;;;;0.45;0.20;;;18.40;99.90;;;;;;5097512;28;20578;-95
2022/08/09 07:03:13;;;;;;;0.00;0.00;;;18.50;99.90;;;;;;5081228;28;20113;-96
2022/08/09 07:05:39;;;;;;;0.10;0.10;;;18.60;99.90;;;;;;5095494;28;20470;-94
2022/08/09 07:08:05;;;;;;;0.00;0.00;;;18.40;99.90;;;;;;5080496;28;20054;-95
2022/08/09 07:10:36;;;;;;;0.20;0.10;;;18.90;99.90;;;;;;5080825;28;20052;-93
2022/08/09 07:13:04;;;;;;;0.30;0.20;;;18.90;99.90;;;;;;5097449;27;20066;-93
2022/08/09 07:15:30;;;;;;;0.10;0.10;;;19.10;99.90;;;;;;5096281;28;20070;-94
2022/08/09 07:17:56;;;;;;;0.05;0.00;;;19.10;99.90;;;;;;5080789;28;20374;-90
2022/08/09 07:20:29;;;;;;;0.10;0.10;;;19.20;99.90;;;;;;5106063;27;20058;-96
2022/08/09 07:25:35;;;;;;;0.00;0.00;;;19.40;99.90;;;;;;6211552;22;20342;-91
2022/08/09 07:28:03;;;;;;;0.00;0.00;;;19.50;99.90;;;;;;5050446;23;20057;-96
2022/08/09 07:30:29;;;;;;;0.28;0.10;;;19.60;99.90;;;;;;5031966;28;20052;-95
2022/08/09 07:33:00;;;;;;;0.00;0.00;;;19.60;99.90;;;;;;4995716;28;20065;-91
2022/08/09 07:35:31;;;;;;;0.20;0.17;;;19.20;99.90;;;;;;5009105;28;20128;-96
2022/08/09 07:37:57;;;;;;;0.10;0.10;;;19.80;99.90;;;;;;5001640;28;20073;-96
2022/08/09 07:40:23;;;;;;;0.13;0.10;;;19.80;99.90;;;;;;5024406;28;20407;-95
2022/08/09 07:42:57;;;;;;;0.00;0.00;;;19.90;99.90;;;;;;5008342;28;20091;-95
2022/08/09 07:45:26;;;;;;;0.00;0.00;;;19.90;99.90;;;;;;5017091;28;20145;-96
2022/08/09 07:47:52;;;;;;;0.17;0.17;;;19.80;99.90;;;;;;5005618;28;20081;-95
2022/08/09 07:50:20;;;;;;;0.10;0.10;;;19.70;99.90;;;;;;4986876;28;20046;-96
2022/08/09 07:52:45;;;;;;;0.05;0.05;;;19.70;99.90;;;;;;4989154;28;20049;-96
2022/08/09 07:55:11;;;;;;;0.05;0.05;;;19.60;99.90;;;;;;4992433;28;20247;-96
2022/08/09 07:57:50;;;;;;;0.13;0.00;;;19.60;99.90;;;;;;5009497;28;20041;-95
2022/08/09 08:00:18;;;;;;;0.00;0.00;;;18.90;99.90;;;;;;4995670;28;20508;-96
2022/08/09 08:02:51;;;;;;;0.68;0.10;;;19.80;99.90;;;;;;4988486;28;20049;-96
2022/08/09 08:05:17;;;;;;;0.15;0.10;;;19.20;99.90;;;;;;4991573;28;20049;-96
2022/08/09 08:07:43;;;;;;;0.20;0.20;;;19.90;99.90;;;;;;4983144;28;20049;-88
2022/08/09 08:10:09;;;;;;;0.00;0.00;;;19.80;99.90;;;;;;4997800;28;20041;-89
2022/08/09 08:12:39;;;;;;;0.00;0.00;;;19.80;99.90;;;;;;5025726;28;20053;-93
2022/08/09 08:17:51;;;;;;;0.00;0.00;;;19.80;99.90;;;;;;5091135;23;20058;-96
2022/08/09 08:20:22;;;;;;;0.10;0.00;;;19.70;99.90;;;;;;4962073;28;20051;-95
2022/08/09 08:22:49;;;;;;;0.10;0.10;;;20.50;99.90;;;;;;4938788;29;20051;-93
2022/08/09 08:25:15;;;;;;;0.20;0.10;;;19.80;99.90;;;;;;4968285;28;20059;-91
2022/08/09 08:27:41;;;;;;;;;;;20.90;99.90;;;;;;4957188;28;20057;-89
2022/08/09 08:30:08;;;;;;;0.10;0.10;;;21.00;99.90;;;;;;4880302;29;20366;-90
2022/08/09 08:32:34;;;;;;;0.17;0.17;;;21.10;99.90;;;;;;4912135;29;20056;-89
2022/08/09 08:34:59;;;;;;;0.00;0.00;;;21.20;99.90;;;;;;4929439;29;20051;-94
2022/08/09 08:37:26;;;;;;;0.10;0.10;;;21.00;99.90;;;;;;4895384;29;20080;-90
2022/08/09 08:39:53;;;;;;;0.00;0.00;;;20.80;99.90;;;;;;4921398;29;20137;-91
2022/08/09 08:42:20;;;;;;;0.10;0.10;;;20.60;99.90;;;;;;4904375;29;20135;-88
2022/08/09 08:44:51;;;;;;;0.10;0.10;;;20.40;99.90;;;;;;4898518;29;20066;-89
2022/08/09 08:47:16;;;;;;;0.10;0.00;;;20.20;99.90;;;;;;4914665;29;20515;-91
2022/08/09 08:49:42;;;;;;;0.00;0.00;;;20.20;99.90;;;;;;4928529;29;20079;-91
2022/08/09 08:52:09;;;;;;;0.00;0.00;;;20.20;99.90;;;;;;4902191;29;20047;-90
2022/08/09 08:54:34;;;;;;;;;;;20.30;99.90;;;;;;4934860;29;20054;-93
2022/08/09 08:57:02;;;;;;;0.00;0.00;;;20.60;99.90;;;;;;4888994;29;19927;-90
2022/08/09 08:59:28;;;;;;;0.00;0.00;;;20.70;99.90;;;;;;4916189;29;20084;-90
2022/08/09 09:01:54;;;;;;;0.10;0.10;;;20.90;99.90;;;;;;4930544;29;20478;-96
2022/08/09 09:04:25;;;;;;;0.05;0.05;;;21.10;99.90;;;;;;4923367;29;20097;-92
2022/08/09 09:06:56;;;;;;;0.55;0.10;;;21.20;99.90;;;;;;4923923;29;20435;-92
2022/08/09 09:09:26;;;;;;;0.00;0.00;;;21.40;99.90;;;;;;4937137;29;20517;-95
2022/08/09 09:11:52;;;;;;;0.00;0.00;;;21.40;99.90;;;;;;4926733;29;20383;-90
2022/08/09 09:14:20;;;;;;;;;;;21.60;99.90;;;;;;4907453;29;20052;-93
2022/08/09 09:16:47;;;;;;;0.25;0.10;;;21.60;99.90;;;;;;4922487;29;19922;-88
2022/08/09 09:19:12;;;;;;;0.20;0.20;;;21.60;99.90;;;;;;4912185;29;20075;-89
2022/08/09 09:22:20;;;;;;;0.10;0.10;;;21.50;99.90;;;;;;4929208;29;20044;-89
2022/08/09 09:24:48;;;;;;;0.00;0.00;;;21.50;99.90;;;;;;4884231;29;20523;-92
2022/08/09 09:27:20;;;;;;;0.00;0.00;;;21.40;99.90;;;;;;4869198;29;20132;-89
2022/08/09 09:29:46;;;;;;;0.05;0.05;;;21.40;99.90;;;;;;4890163;29;20553;-89
2022/08/09 09:32:24;;;;;;;0.00;0.00;;;21.40;99.90;;;;;;4935910;29;20059;-90
2022/08/09 09:35:08;;;;;;;0.03;0.03;;;21.30;99.90;;;;;;4887047;29;20104;-86
2022/08/09 09:37:35;;;;;;;0.03;0.03;;;21.30;99.90;;;;;;4928913;29;20043;-88
2022/08/09 09:40:01;;;;;;;0.03;0.03;;;21.30;99.90;;;;;;4917905;29;20048;-87
2022/08/09 09:42:31;;;;;;;0.00;0.00;;;21.40;99.90;;;;;;4915913;29;20047;-86
2022/08/09 09:45:04;;;;;;;0.00;0.00;;;21.50;99.90;;;;;;4926014;29;20075;-88
2022/08/09 09:47:30;;;;;;;0.20;0.20;;;21.60;99.90;;;;;;4913068;29;20797;-91
2022/08/09 09:49:58;;;;;;;0.00;0.00;;;21.70;99.90;;;;;;4937139;29;20083;-91
2022/08/09 09:52:25;;;;;;;0.00;0.00;;;21.80;99.90;;;;;;4936001;29;20053;-91
2022/08/09 09:54:58;;;;;;;0.00;0.00;;;21.90;99.90;;;;;;4937075;29;20054;-91
2022/08/09 09:57:24;;;;;;;0.00;0.00;;;22.00;99.90;;;;;;4937000;29;20139;-91
2022/08/09 09:59:53;;;;;;;0.03;0.03;;;22.10;99.90;;;;;;4887026;29;20651;-90
2022/08/09 10:02:19;;;;;;;0.00;0.00;;;22.20;99.90;;;;;;4916815;29;20039;-91
2022/08/09 10:05:02;;;;;;;0.00;0.00;;;22.30;99.90;;;;;;4910478;29;20058;-95
2022/08/09 10:07:27;;;;;;;0.08;0.08;;;22.50;99.90;;;;;;4892936;29;20567;-95
2022/08/09 10:10:01;;;;;;;0.08;0.08;;;22.60;99.90;;;;;;4901475;29;20048;-96
2022/08/09 10:12:35;;;;;;;0.00;0.00;;;22.70;99.90;;;;;;4890601;29;20090;-87
2022/08/09 10:15:15;;;;;;;0.10;0.10;;;22.70;99.90;;;;;;4938189;29;20055;-87
2022/08/09 10:17:44;;;;;;;0.00;0.00;;;22.70;99.90;;;;;;4922270;29;20153;-90
2022/08/09 10:20:18;;;;;;;0.20;0.10;;;22.70;99.90;;;;;;4900236;29;20031;-96
2022/08/09 10:22:50;;;;;;;0.00;0.00;;;22.70;99.90;;;;;;4900335;29;20087;-94
2022/08/09 10:25:19;;;;;;;0.00;0.00;;;22.70;99.90;;;;;;4917471;29;20126;-92
2022/08/09 10:27:45;;;;;;;0.13;0.13;;;22.60;99.90;;;;;;4924838;29;20114;-94
2022/08/09 10:30:15;;;;;;;0.00;0.00;;;22.70;99.90;;;;;;4904056;29;20048;-96
2022/08/09 10:32:42;;;;;;;0.10;0.10;;;22.80;99.90;;;;;;5133359;23;20128;-94
2022/08/09 10:35:09;;;;;;;0.00;0.00;;;22.80;99.90;;;;;;4954578;28;20042;-96
2022/08/09 10:37:35;;;;;;;0.00;0.00;;;22.90;99.90;;;;;;4949769;28;20096;-96
2022/08/09 10:40:05;;;;;;;0.00;0.00;;;22.90;99.90;;;;;;4937549;28;20139;-94
2022/08/09 10:42:36;;;;;;;0.10;0.10;;;22.50;99.90;;;;;;4960060;28;20049;-96
2022/08/09 10:45:07;;;;;;;0.00;0.00;;;23.00;99.90;;;;;;4986023;28;20046;-96
2022/08/09 10:47:59;;;;;;;0.00;0.00;;;23.10;99.90;;;;;;4969428;28;20138;-96
2022/08/09 10:51:13;;;;;;;0.10;0.10;;;23.10;99.90;;;;;;4976808;28;20049;-96
2022/08/09 10:54:06;;;;;;;0.00;0.00;;;22.40;99.90;;;;;;4949331;28;20718;-96
2022/08/09 11:02:38;;;;;;;0.28;0.10;;;23.50;99.90;;;;;;4992367;23;20051;-95
2022/08/09 11:05:26;;;;;;;0.20;0.10;;;23.20;99.90;;;;;;4905128;29;20048;-96
2022/08/09 11:07:52;;;;;;;0.00;0.00;;;23.70;99.90;;;;;;4919842;29;20044;-95
2022/08/09 11:10:41;;;;;;;;;;;23.60;99.90;;;;;;4910010;29;20134;-96
2022/08/09 11:13:16;;;;;;;0.08;0.08;;;23.70;99.90;;;;;;4912811;29;19923;-90
2022/08/09 11:15:42;;;;;;;0.00;0.00;;;23.00;99.90;;;;;;4902252;29;20399;-93
2022/08/09 11:18:11;;;;;;;0.00;0.00;;;23.80;99.90;;;;;;4902028;29;20040;-93
2022/08/09 11:20:41;;;;;;;0.00;0.00;;;23.80;99.90;;;;;;4914733;29;20044;-95
2022/08/09 11:23:10;;;;;;;0.00;0.00;;;23.70;99.90;;;;;;4906067;29;20055;-95
2022/08/09 11:25:38;;;;;;;0.00;0.00;;;24.00;99.90;;;;;;4910730;29;20510;-96
2022/08/09 11:28:33;;;;;;;0.10;0.10;;;23.90;99.90;;;;;;4902455;29;20134;-96
2022/08/09 11:31:01;;;;;;;0.10;0.10;;;24.00;99.90;;;;;;4902490;29;20047;-92
2022/08/09 11:33:37;;;;;;;0.00;0.00;;;24.10;99.90;;;;;;4912408;29;20040;-93
2022/08/09 11:36:03;;;;;;;0.00;0.00;;;24.00;99.90;;;;;;4904437;29;20076;-96
2022/08/09 11:38:34;;;;;;;0.05;0.05;;;24.00;99.90;;;;;;4904534;29;20547;-95
2022/08/09 11:41:10;;;;;;;0.10;0.10;;;24.10;99.90;;;;;;4927524;29;20134;-92
2022/08/09 11:43:42;;;;;;;0.00;0.00;;;24.10;99.90;;;;;;4904040;29;20499;-91
2022/08/09 11:46:08;;;;;;;0.00;0.00;;;24.20;99.90;;;;;;4904408;29;20513;-91
2022/08/09 11:55:40;;;;;;;0.00;0.00;;;23.60;99.90;;;;;;4840534;29;19920;-87
2022/08/09 11:58:15;;;;;;;0.00;0.00;;;24.50;99.90;;;;;;4816939;29;20088;-88
2022/08/09 12:00:58;;;;;;;0.03;0.00;;;24.50;99.90;;;;;;4792685;29;20107;-87
2022/08/09 12:03:25;;;;;;;0.00;0.00;;;24.60;99.90;;;;;;4792620;29;20142;-87
2022/08/09 12:05:55;;;;;;;0.10;0.10;;;24.50;99.90;;;;;;4778469;29;20440;-88
2022/08/09 12:12:14;;;;;;;0.00;0.00;;;24.70;99.90;;;;;;4822890;29;20091;-87
2022/08/09 12:18:27;;;;;;;0.00;0.00;;;24.70;99.90;;;;;;4822734;29;20067;-88
2022/08/09 12:25:15;;;;;;;0.13;0.13;;;24.80;99.90;;;;;;4918024;29;20442;-88
2022/08/09 12:27:42;;;;;;;0.00;0.00;;;24.90;99.90;;;;;;4900179;29;20048;-87
2022/08/09 12:30:08;;;;;;;0.03;0.03;;;25.00;99.90;;;;;;4916513;29;20071;-88
2022/08/09 12:32:34;;;;;;;0.00;0.00;;;25.10;99.90;;;;;;4869947;29;20439;-87
2022/08/09 12:35:03;;;;;;;0.00;0.00;;;25.10;99.90;;;;;;4898038;29;20072;-87
2022/08/09 12:37:33;;;;;;;0.00;0.00;;;25.20;99.90;;;;;;4913699;29;20095;-89
2022/08/09 12:40:09;;;;;;;0.00;0.00;;;25.30;99.90;;;;;;4902299;29;20110;-87
2022/08/09 12:42:35;;;;;;;0.00;0.00;;;25.30;99.90;;;;;;4918731;29;20052;-88
2022/08/09 12:45:03;;;;;;;0.10;0.10;;;25.30;99.90;;;;;;4901846;29;20056;-90
2022/08/09 12:47:29;;;;;;;0.00;0.00;;;25.30;99.90;;;;;;4917179;29;20054;-89
2022/08/09 12:52:41;;;;;;;0.20;0.10;;;25.50;99.90;;;;;;4894127;29;19927;-93
2022/08/09 12:55:13;;;;;;;0.10;0.10;;;26.40;99.90;;;;;;4913085;29;20059;-93
2022/08/09 12:57:47;;;;;;;0.00;0.00;;;25.50;99.90;;;;;;4902206;29;20062;-94
2022/08/09 13:00:36;;;;;;;0.00;0.00;;;25.50;99.90;;;;;;4917406;29;20043;-92
2022/08/09 13:03:05;;;;;;;0.00;0.00;;;25.60;99.90;;;;;;4904496;29;20106;-93
2022/08/09 13:05:41;;;;;;;0.00;0.00;;;25.70;99.90;;;;;;4902219;29;20047;-96
2022/08/09 13:08:24;;;;;;;0.25;0.00;;;25.80;99.90;;;;;;4915449;29;20522;-95
2022/08/09 13:10:57;;;;;;;0.00;0.00;;;25.90;99.90;;;;;;4901880;29;20044;-95
2022/08/09 13:13:33;;;;;;;0.00;0.00;;;26.00;99.90;;;;;;4901941;29;20051;-93
2022/08/09 13:16:15;;;;;;;;;;;;;;;;;;;;;
2022/08/09 13:18:48;;;;;;;0.00;0.00;;;26.10;99.90;;;;;;4917621;29;20241;-96
2022/08/09 13:21:28;;;;;;;0.00;0.00;;;26.20;99.90;;;;;;4903754;29;20043;-93
2022/08/09 13:27:36;;;;;;;0.00;0.00;;;26.00;99.90;;;;;;4926830;29;20124;-94
2022/08/09 13:30:35;;;;;;;;;;;;;;;;;;;;;
2022/08/09 13:33:04;;;;;;;0.00;0.00;;;26.10;99.90;;;;;;4916158;29;20056;-93
2022/08/09 13:35:32;;;;;;;;;;;26.00;99.90;;;;;;4891863;29;20048;-93
2022/08/09 13:37:59;;;;;;;0.05;0.05;;;26.10;99.90;;;;;;4903335;29;20005;-94
2022/08/09 13:40:27;;;;;;;0.00;0.00;;;26.10;99.90;;;;;;4903198;29;20107;-92
2022/08/09 13:46:07;;;;;;;0.00;0.00;;;26.20;99.90;;;;;;4924314;29;20117;-93
2022/08/09 13:48:33;;;;;;;0.08;0.00;;;26.30;99.90;;;;;;4903215;29;20048;-93
2022/08/09 13:50:59;;;;;;;;;;;26.30;99.90;;;;;;4907272;29;20044;-93
2022/08/09 13:53:25;;;;;;;0.00;0.00;;;26.30;99.90;;;;;;4906851;29;19923;-93